Adams, Tennessee
Current Conditions -  °F | °C
As of 12:35 PM on Wednesday 26 Nov 2014 (Local Time) from KM91 Reporting Station
Clear Clear  
Wind Chill:   Ceiling: Unl
Heat Index:   Visibility: 10mi
Dew Point: -5°   Wind: 0mph
Humidity: 43%   Direction: NA
Pressure: 30.06"   Gusts: NA
Location:  36.58°N, 87.07°W
Report Text: KM91 261835Z AUTO 00000KT 10SM CLR 07/M05 A3006 RMK
Loading
Personal Weather Stations






























Interactive Weather Map New forecast layout! Learn more

10-Day Weather Forecast

Advertisements
Track Severe Weather on mobile